Track Бородулина Ольга

Time Latitude Longitude Accuracy (66% radius in meters) Altitude (meters) Speed (km/hour) Bearing (degrees) Battery (%) GPS flag
11:15:45 60.370934 29.556488 16 79 0 142.85441589355 52 0 delete
11:15:35 60.370934 29.556488 16 79 0 142.85441589355 52 0 delete
11:15:24 60.370934 29.556488 16 79 0 142.85441589355 52 0 delete
11:15:13 60.370934 29.556488 16 79 0 142.85441589355 52 0 delete
11:15:03 60.370934 29.556488 16 79 0 142.85441589355 52 0 delete
11:14:52 60.370934 29.556488 16 79 0 142.85441589355 52 0 delete
11:14:41 60.370934 29.556488 16 79 0 142.85441589355 52 0 delete
11:14:31 60.370934 29.556488 16 79 0 142.85441589355 52 0 delete
11:14:20 60.370934 29.556488 16 79 0 142.85441589355 52 0 delete
11:14:09 60.370934 29.556488 16 79 0 142.85441589355 52 0 delete
11:13:59 60.370934 29.556488 16 79 0 142.85441589355 52 0 delete
11:13:48 60.370934 29.556488 16 79 0 142.85441589355 60 0 delete
11:13:38 60.370934 29.556488 16 79 0 142.85441589355 60 0 delete
10:13:22 60.370949 29.556421 12 83 0 142.85441589355 60 1 delete
10:13:16 60.370941 29.556421 12 84 0 142.85441589355 60 1 delete
10:13:05 60.370932 29.556481 16 80 0 142.85441589355 60 1 delete
10:13:04 60.370934 29.556488 16 79 0 142.85441589355 60 1 delete
10:12:55 60.370973 29.556492 12 80 0 64.986343383789 60 1 delete
10:12:48 60.370984 29.556462 12 77 0 43.374347686768 60 1 delete
10:12:44 60.370984 29.556420 12 80 0 16.978712081909 60 1 delete
10:12:33 60.370984 29.556415 24 82 0 7.4736113548279 60 1 delete
10:12:24 60.370974 29.556371 6 75 0.56383299827576 129.91189575195 60 1 delete
10:12:23 60.370982 29.556359 6 76 0.52855342626572 132.57078552246 60 1 delete
10:12:12 60.371027 29.556352 8 76 0 7.1787719726562 60 1 delete
10:12:01 60.371037 29.556369 16 73 0.41063901782036 348.19912719727 60 1 delete
10:11:51 60.371021 29.556340 12 73 0 2.0614130496979 60 1 delete
10:11:49 60.371017 29.556324 16 74 0.21731580793858 2.0614130496979 60 1 delete
10:11:40 60.370938 29.556328 16 75 0 190.43597412109 60 1 delete
10:11:29 60.370932 29.556331 8 73 0 190.43597412109 60 1 delete
10:11:19 60.370932 29.556331 12 71 0 190.43597412109 60 1 delete
10:11:08 60.370929 29.556332 8 77 0 190.43597412109 60 1 delete
10:10:57 60.370942 29.556363 12 76 0 299.01577758789 60 1 delete
10:10:47 60.370957 29.556396 8 81 0 352.7268371582 60 1 delete
10:10:36 60.370974 29.556370 6 81 0.3741566836834 111.53778839111 60 1 delete
10:10:25 60.370979 29.556379 6 70 0 23.666952133179 60 1 delete
10:10:14 60.370953 29.556350 8 61 0 180.36193847656 60 1 delete
10:10:04 60.370965 29.556332 8 64 0.383429646492 30.716932296753 60 1 delete
10:09:53 60.370961 29.556319 8 64 0 178.10488891602 60 1 delete
10:09:42 60.370950 29.556299 6 66 0 178.10488891602 60 1 delete
10:09:32 60.370949 29.556315 12 65 0 188.93431091309 60 1 delete
10:09:27 60.370961 29.556315 8 65 0 6.8416666984558 60 1 delete
10:09:21 60.370985 29.556302 8 67 0 310.13549804688 60 1 delete
10:09:12 60.371006 29.556291 12 69 0 326.81243896484 60 1 delete
10:09:10 60.371006 29.556305 8 70 0 332.58715820312 60 1 delete
10:09:00 60.370996 29.556393 8 72 0 344.01840209961 60 1 delete
10:08:49 60.370999 29.556372 16 71 0 235.09252929688 60 1 delete
10:08:38 60.371007 29.556385 16 65 0 184.54449462891 60 1 delete
10:08:34 60.371007 29.556385 8 63 0 184.54449462891 60 1 delete
10:08:28 60.371035 29.556405 8 65 0 184.54449462891 60 1 delete
10:08:17 60.371079 29.556390 24 80 0.38406479358673 353.2197265625 60 1 delete